Accueil
METAR-TAF:

METAR-TAF

Aéroports :

Cape Newenham, Alaska, États-Unis

latitude: 58-39N, longitude: 162-04W, altitude: 165 m

Observation

Le bulletin a été fait il y a 27 minutes, à 15:55 UTC
Vent calme
Température 12°C
Humidité 76%
Pression 1008 hPa
Visibilité: 16.1 km
Nuages fragmentés à une hauteur de 7000 ft

METAR: PAEH 161555Z AUTO 00000KT 10SM BKN070 12/08 A2978 RMK AO2 SLP085 T01230082

Heure: 08:22 (16:22 UTC)


TAF: absent

Observations et prévisions météorologiques de plus de 4000 aéroports (messages METAR et TAF).

Les stations disponibles sont représentées par des disques jaunes et rouges sur la carte.

Passer la souris dessus pour voir le nom de la station.

Cliquer dessus pour voir les observations et prévisions météorologiques.

Pour changer de carte: cliquez sur les boutons verts avec une croix noire pour zoomer, sur le bouton vert avec un tiret pour effectuer un zoom arrière, ou sur les flèches vertes pour les cartes adjacentes.


METAR-TAF: